sensor_id;sensor_type;location;lat;lon;timestamp;P1;durP1;ratioP1;P2;durP2;ratioP2
37655;SDS011;23498;50.958;3.124;2023-04-25T00:01:23;17.02;;;5.75;;
37655;SDS011;23498;50.958;3.124;2023-04-25T00:04:15;18.98;;;6.00;;
37655;SDS011;23498;50.958;3.124;2023-04-25T00:07:04;23.27;;;6.97;;
37655;SDS011;23498;50.958;3.124;2023-04-25T00:09:51;20.55;;;6.35;;
37655;SDS011;23498;50.958;3.124;2023-04-25T00:16:07;20.42;;;6.40;;
37655;SDS011;23498;50.958;3.124;2023-04-25T00:19:13;18.52;;;7.25;;
37655;SDS011;23498;50.958;3.124;2023-04-25T00:25:29;20.25;;;5.80;;
37655;SDS011;23498;50.958;3.124;2023-04-25T00:28:33;17.17;;;5.95;;
37655;SDS011;23498;50.958;3.124;2023-04-25T00:31:38;18.73;;;5.68;;
37655;SDS011;23498;50.958;3.124;2023-04-25T00:34:50;19.25;;;5.97;;
37655;SDS011;23498;50.958;3.124;2023-04-25T00:37:36;20.95;;;5.68;;
37655;SDS011;23498;50.958;3.124;2023-04-25T00:40:23;22.33;;;5.93;;
37655;SDS011;23498;50.958;3.124;2023-04-25T00:43:29;26.33;;;7.53;;
37655;SDS011;23498;50.958;3.124;2023-04-25T00:45:56;23.38;;;6.72;;
37655;SDS011;23498;50.958;3.124;2023-04-25T00:48:22;21.98;;;6.55;;
37655;SDS011;23498;50.958;3.124;2023-04-25T00:50:57;23.33;;;6.35;;
37655;SDS011;23498;50.958;3.124;2023-04-25T00:53:46;17.27;;;6.50;;
37655;SDS011;23498;50.958;3.124;2023-04-25T00:56:58;18.52;;;5.90;;
37655;SDS011;23498;50.958;3.124;2023-04-25T01:00:10;24.63;;;6.53;;
37655;SDS011;23498;50.958;3.124;2023-04-25T01:02:36;23.40;;;6.25;;
37655;SDS011;23498;50.958;3.124;2023-04-25T01:05:07;21.95;;;5.97;;
37655;SDS011;23498;50.958;3.124;2023-04-25T01:07:34;20.17;;;5.72;;
37655;SDS011;23498;50.958;3.124;2023-04-25T01:10:01;18.48;;;6.22;;
37655;SDS011;23498;50.958;3.124;2023-04-25T01:12:27;19.05;;;6.10;;
37655;SDS011;23498;50.958;3.124;2023-04-25T01:14:54;23.60;;;6.13;;
37655;SDS011;23498;50.958;3.124;2023-04-25T01:17:20;17.38;;;6.32;;
37655;SDS011;23498;50.958;3.124;2023-04-25T01:19:46;17.85;;;6.22;;
37655;SDS011;23498;50.958;3.124;2023-04-25T01:22:14;17.75;;;5.97;;
37655;SDS011;23498;50.958;3.124;2023-04-25T01:24:40;20.17;;;7.10;;
37655;SDS011;23498;50.958;3.124;2023-04-25T01:27:07;34.28;;;7.38;;
37655;SDS011;23498;50.958;3.124;2023-04-25T01:29:33;25.60;;;7.68;;
37655;SDS011;23498;50.958;3.124;2023-04-25T01:32:01;25.42;;;6.72;;
37655;SDS011;23498;50.958;3.124;2023-04-25T01:34:27;23.63;;;7.75;;
37655;SDS011;23498;50.958;3.124;2023-04-25T01:36:53;24.30;;;6.53;;
37655;SDS011;23498;50.958;3.124;2023-04-25T01:39:19;19.48;;;6.40;;
37655;SDS011;23498;50.958;3.124;2023-04-25T01:41:46;19.70;;;5.63;;
37655;SDS011;23498;50.958;3.124;2023-04-25T01:44:13;17.73;;;6.13;;
37655;SDS011;23498;50.958;3.124;2023-04-25T01:46:39;22.98;;;5.90;;
37655;SDS011;23498;50.958;3.124;2023-04-25T01:49:06;22.70;;;6.07;;
37655;SDS011;23498;50.958;3.124;2023-04-25T01:51:32;21.70;;;6.70;;
37655;SDS011;23498;50.958;3.124;2023-04-25T01:53:58;15.82;;;5.95;;
37655;SDS011;23498;50.958;3.124;2023-04-25T01:56:24;21.05;;;6.45;;
37655;SDS011;23498;50.958;3.124;2023-04-25T01:58:51;23.70;;;6.45;;
37655;SDS011;23498;50.958;3.124;2023-04-25T02:01:17;17.08;;;6.18;;
37655;SDS011;23498;50.958;3.124;2023-04-25T02:03:43;18.70;;;7.10;;
37655;SDS011;23498;50.958;3.124;2023-04-25T02:06:09;18.13;;;5.47;;
37655;SDS011;23498;50.958;3.124;2023-04-25T02:08:35;19.38;;;5.45;;
37655;SDS011;23498;50.958;3.124;2023-04-25T02:11:02;19.23;;;5.90;;
37655;SDS011;23498;50.958;3.124;2023-04-25T02:13:28;15.77;;;5.32;;
37655;SDS011;23498;50.958;3.124;2023-04-25T02:15:54;23.30;;;6.03;;
37655;SDS011;23498;50.958;3.124;2023-04-25T02:18:20;22.27;;;6.15;;
37655;SDS011;23498;50.958;3.124;2023-04-25T02:20:47;18.10;;;5.50;;
37655;SDS011;23498;50.958;3.124;2023-04-25T02:23:13;19.15;;;5.40;;
37655;SDS011;23498;50.958;3.124;2023-04-25T02:25:40;16.98;;;5.20;;
37655;SDS011;23498;50.958;3.124;2023-04-25T02:28:06;16.08;;;5.32;;
37655;SDS011;23498;50.958;3.124;2023-04-25T02:30:32;16.70;;;5.43;;
37655;SDS011;23498;50.958;3.124;2023-04-25T02:32:58;17.77;;;5.82;;
37655;SDS011;23498;50.958;3.124;2023-04-25T02:35:24;17.13;;;6.07;;
37655;SDS011;23498;50.958;3.124;2023-04-25T02:37:50;19.55;;;5.95;;
37655;SDS011;23498;50.958;3.124;2023-04-25T02:40:17;15.50;;;5.53;;
37655;SDS011;23498;50.958;3.124;2023-04-25T02:42:43;22.67;;;6.05;;
37655;SDS011;23498;50.958;3.124;2023-04-25T02:45:10;16.13;;;5.78;;
37655;SDS011;23498;50.958;3.124;2023-04-25T02:47:36;17.08;;;6.03;;
37655;SDS011;23498;50.958;3.124;2023-04-25T02:50:03;20.73;;;6.25;;
37655;SDS011;23498;50.958;3.124;2023-04-25T02:52:29;19.92;;;6.18;;
37655;SDS011;23498;50.958;3.124;2023-04-25T02:54:55;14.35;;;5.97;;
37655;SDS011;23498;50.958;3.124;2023-04-25T02:57:24;18.38;;;6.00;;
37655;SDS011;23498;50.958;3.124;2023-04-25T03:00:03;13.50;;;5.45;;
37655;SDS011;23498;50.958;3.124;2023-04-25T03:02:30;17.67;;;6.18;;
37655;SDS011;23498;50.958;3.124;2023-04-25T03:04:56;18.13;;;6.10;;
37655;SDS011;23498;50.958;3.124;2023-04-25T03:07:23;16.45;;;5.20;;
37655;SDS011;23498;50.958;3.124;2023-04-25T03:09:49;14.70;;;5.25;;
37655;SDS011;23498;50.958;3.124;2023-04-25T03:12:15;18.55;;;5.45;;
37655;SDS011;23498;50.958;3.124;2023-04-25T03:14:41;23.00;;;6.03;;
37655;SDS011;23498;50.958;3.124;2023-04-25T03:17:09;23.48;;;6.00;;
37655;SDS011;23498;50.958;3.124;2023-04-25T03:19:35;14.52;;;5.30;;
37655;SDS011;23498;50.958;3.124;2023-04-25T03:22:01;17.75;;;5.75;;
37655;SDS011;23498;50.958;3.124;2023-04-25T03:24:27;18.35;;;5.38;;
37655;SDS011;23498;50.958;3.124;2023-04-25T03:26:53;12.57;;;4.93;;
37655;SDS011;23498;50.958;3.124;2023-04-25T03:29:19;14.65;;;5.35;;
37655;SDS011;23498;50.958;3.124;2023-04-25T03:31:49;14.35;;;5.22;;
37655;SDS011;23498;50.958;3.124;2023-04-25T03:34:18;20.17;;;5.57;;
37655;SDS011;23498;50.958;3.124;2023-04-25T03:36:44;16.02;;;5.45;;
37655;SDS011;23498;50.958;3.124;2023-04-25T03:39:25;13.95;;;4.70;;
37655;SDS011;23498;50.958;3.124;2023-04-25T03:41:51;19.83;;;4.85;;
37655;SDS011;23498;50.958;3.124;2023-04-25T03:44:18;18.73;;;4.90;;
37655;SDS011;23498;50.958;3.124;2023-04-25T03:46:55;14.98;;;4.82;;
37655;SDS011;23498;50.958;3.124;2023-04-25T03:52:17;14.57;;;5.28;;
37655;SDS011;23498;50.958;3.124;2023-04-25T03:54:50;16.45;;;5.57;;
37655;SDS011;23498;50.958;3.124;2023-04-25T03:57:30;14.90;;;5.30;;
37655;SDS011;23498;50.958;3.124;2023-04-25T04:06:23;11.25;;;3.53;;
37655;SDS011;23498;50.958;3.124;2023-04-25T04:08:50;13.45;;;4.28;;
37655;SDS011;23498;50.958;3.124;2023-04-25T04:11:22;13.90;;;3.88;;
37655;SDS011;23498;50.958;3.124;2023-04-25T04:13:56;13.05;;;3.92;;
37655;SDS011;23498;50.958;3.124;2023-04-25T04:19:31;12.07;;;4.00;;
37655;SDS011;23498;50.958;3.124;2023-04-25T04:22:00;13.95;;;3.95;;
37655;SDS011;23498;50.958;3.124;2023-04-25T04:24:43;11.75;;;3.78;;
37655;SDS011;23498;50.958;3.124;2023-04-25T04:27:13;15.18;;;3.67;;
37655;SDS011;23498;50.958;3.124;2023-04-25T04:29:48;10.82;;;4.13;;
37655;SDS011;23498;50.958;3.124;2023-04-25T04:32:16;14.07;;;3.85;;
37655;SDS011;23498;50.958;3.124;2023-04-25T04:34:45;14.95;;;4.05;;
37655;SDS011;23498;50.958;3.124;2023-04-25T04:37:16;9.50;;;3.15;;
37655;SDS011;23498;50.958;3.124;2023-04-25T04:39:51;10.88;;;3.47;;
37655;SDS011;23498;50.958;3.124;2023-04-25T04:42:17;11.30;;;3.45;;
37655;SDS011;23498;50.958;3.124;2023-04-25T04:44:43;14.93;;;3.70;;
37655;SDS011;23498;50.958;3.124;2023-04-25T04:47:12;10.43;;;3.70;;
37655;SDS011;23498;50.958;3.124;2023-04-25T04:49:39;13.07;;;4.88;;
37655;SDS011;23498;50.958;3.124;2023-04-25T04:52:05;12.40;;;3.70;;
37655;SDS011;23498;50.958;3.124;2023-04-25T04:54:33;10.50;;;3.45;;
37655;SDS011;23498;50.958;3.124;2023-04-25T04:57:03;13.60;;;3.30;;
37655;SDS011;23498;50.958;3.124;2023-04-25T04:59:29;10.98;;;3.63;;
37655;SDS011;23498;50.958;3.124;2023-04-25T05:01:55;12.38;;;3.78;;
37655;SDS011;23498;50.958;3.124;2023-04-25T05:04:22;10.73;;;3.30;;
37655;SDS011;23498;50.958;3.124;2023-04-25T05:06:48;12.93;;;3.95;;
37655;SDS011;23498;50.958;3.124;2023-04-25T05:12:00;10.88;;;3.63;;
37655;SDS011;23498;50.958;3.124;2023-04-25T05:14:26;10.65;;;3.67;;
37655;SDS011;23498;50.958;3.124;2023-04-25T05:16:55;13.13;;;3.55;;
37655;SDS011;23498;50.958;3.124;2023-04-25T05:19:22;13.18;;;4.10;;
37655;SDS011;23498;50.958;3.124;2023-04-25T05:25:13;11.82;;;3.45;;
37655;SDS011;23498;50.958;3.124;2023-04-25T05:27:40;11.43;;;3.58;;
37655;SDS011;23498;50.958;3.124;2023-04-25T05:30:07;13.18;;;3.72;;
37655;SDS011;23498;50.958;3.124;2023-04-25T05:32:37;9.38;;;3.78;;
37655;SDS011;23498;50.958;3.124;2023-04-25T05:35:04;15.07;;;4.30;;
37655;SDS011;23498;50.958;3.124;2023-04-25T05:37:34;14.80;;;4.35;;
37655;SDS011;23498;50.958;3.124;2023-04-25T05:40:02;13.65;;;3.97;;
37655;SDS011;23498;50.958;3.124;2023-04-25T05:45:41;15.55;;;3.42;;
37655;SDS011;23498;50.958;3.124;2023-04-25T05:48:07;11.80;;;3.33;;
37655;SDS011;23498;50.958;3.124;2023-04-25T05:50:33;11.93;;;3.28;;
37655;SDS011;23498;50.958;3.124;2023-04-25T05:52:59;15.32;;;3.60;;
37655;SDS011;23498;50.958;3.124;2023-04-25T05:55:25;13.15;;;3.55;;
37655;SDS011;23498;50.958;3.124;2023-04-25T05:57:51;10.02;;;4.65;;
37655;SDS011;23498;50.958;3.124;2023-04-25T06:00:17;13.85;;;5.45;;
37655;SDS011;23498;50.958;3.124;2023-04-25T06:02:48;17.65;;;5.53;;
37655;SDS011;23498;50.958;3.124;2023-04-25T06:08:15;16.77;;;4.18;;
37655;SDS011;23498;50.958;3.124;2023-04-25T06:10:41;14.82;;;3.50;;
37655;SDS011;23498;50.958;3.124;2023-04-25T06:13:09;11.23;;;3.78;;
37655;SDS011;23498;50.958;3.124;2023-04-25T06:15:35;12.30;;;4.22;;
37655;SDS011;23498;50.958;3.124;2023-04-25T06:18:02;11.18;;;3.20;;
37655;SDS011;23498;50.958;3.124;2023-04-25T06:20:30;9.60;;;3.42;;
37655;SDS011;23498;50.958;3.124;2023-04-25T06:22:56;9.27;;;3.67;;
37655;SDS011;23498;50.958;3.124;2023-04-25T06:25:26;9.05;;;3.17;;
37655;SDS011;23498;50.958;3.124;2023-04-25T06:33:04;14.02;;;4.20;;
37655;SDS011;23498;50.958;3.124;2023-04-25T06:35:30;10.45;;;2.83;;
37655;SDS011;23498;50.958;3.124;2023-04-25T06:37:56;9.98;;;3.17;;
37655;SDS011;23498;50.958;3.124;2023-04-25T06:40:22;12.48;;;2.97;;
37655;SDS011;23498;50.958;3.124;2023-04-25T06:42:48;9.18;;;3.00;;
37655;SDS011;23498;50.958;3.124;2023-04-25T06:45:14;12.02;;;3.47;;
37655;SDS011;23498;50.958;3.124;2023-04-25T06:47:41;8.15;;;2.65;;
37655;SDS011;23498;50.958;3.124;2023-04-25T06:50:07;11.75;;;2.97;;
37655;SDS011;23498;50.958;3.124;2023-04-25T06:52:33;13.45;;;2.97;;
37655;SDS011;23498;50.958;3.124;2023-04-25T06:55:02;11.45;;;2.53;;
37655;SDS011;23498;50.958;3.124;2023-04-25T06:57:30;11.50;;;3.40;;
37655;SDS011;23498;50.958;3.124;2023-04-25T06:59:56;11.32;;;2.90;;
37655;SDS011;23498;50.958;3.124;2023-04-25T07:02:22;9.23;;;2.88;;
37655;SDS011;23498;50.958;3.124;2023-04-25T07:04:48;10.43;;;3.10;;
37655;SDS011;23498;50.958;3.124;2023-04-25T07:07:14;10.57;;;2.88;;
37655;SDS011;23498;50.958;3.124;2023-04-25T07:09:42;10.00;;;2.50;;
37655;SDS011;23498;50.958;3.124;2023-04-25T07:12:28;9.45;;;2.67;;
37655;SDS011;23498;50.958;3.124;2023-04-25T07:14:55;6.90;;;2.30;;
37655;SDS011;23498;50.958;3.124;2023-04-25T07:17:21;9.48;;;3.30;;
37655;SDS011;23498;50.958;3.124;2023-04-25T07:19:54;12.07;;;2.75;;
37655;SDS011;23498;50.958;3.124;2023-04-25T07:22:20;9.65;;;2.85;;
37655;SDS011;23498;50.958;3.124;2023-04-25T07:24:49;9.38;;;2.50;;
37655;SDS011;23498;50.958;3.124;2023-04-25T07:27:20;10.23;;;3.15;;
37655;SDS011;23498;50.958;3.124;2023-04-25T07:29:55;9.48;;;2.95;;
37655;SDS011;23498;50.958;3.124;2023-04-25T07:32:47;7.25;;;2.40;;
37655;SDS011;23498;50.958;3.124;2023-04-25T07:36:09;7.10;;;1.88;;
37655;SDS011;23498;50.958;3.124;2023-04-25T07:44:28;12.32;;;2.67;;
37655;SDS011;23498;50.958;3.124;2023-04-25T07:47:02;8.60;;;2.00;;
37655;SDS011;23498;50.958;3.124;2023-04-25T07:49:49;9.75;;;2.33;;
37655;SDS011;23498;50.958;3.124;2023-04-25T07:52:15;8.57;;;2.40;;
37655;SDS011;23498;50.958;3.124;2023-04-25T07:54:41;9.90;;;2.97;;
37655;SDS011;23498;50.958;3.124;2023-04-25T07:57:07;15.18;;;2.70;;
37655;SDS011;23498;50.958;3.124;2023-04-25T07:59:33;9.52;;;2.20;;
37655;SDS011;23498;50.958;3.124;2023-04-25T08:02:00;12.82;;;3.75;;
37655;SDS011;23498;50.958;3.124;2023-04-25T08:04:26;10.85;;;2.38;;
37655;SDS011;23498;50.958;3.124;2023-04-25T08:10:05;9.98;;;2.88;;
37655;SDS011;23498;50.958;3.124;2023-04-25T08:12:32;13.95;;;2.75;;
37655;SDS011;23498;50.958;3.124;2023-04-25T08:14:58;11.38;;;2.83;;
37655;SDS011;23498;50.958;3.124;2023-04-25T08:17:24;8.55;;;2.55;;
37655;SDS011;23498;50.958;3.124;2023-04-25T08:19:51;9.38;;;2.38;;
37655;SDS011;23498;50.958;3.124;2023-04-25T08:22:17;10.45;;;2.38;;
37655;SDS011;23498;50.958;3.124;2023-04-25T08:24:43;7.88;;;1.55;;
37655;SDS011;23498;50.958;3.124;2023-04-25T08:27:09;10.27;;;2.03;;
37655;SDS011;23498;50.958;3.124;2023-04-25T08:32:18;7.78;;;1.58;;
37655;SDS011;23498;50.958;3.124;2023-04-25T08:35:04;9.68;;;1.65;;
37655;SDS011;23498;50.958;3.124;2023-04-25T08:37:31;7.47;;;1.75;;
37655;SDS011;23498;50.958;3.124;2023-04-25T08:39:58;9.07;;;2.35;;
37655;SDS011;23498;50.958;3.124;2023-04-25T08:42:24;9.70;;;1.80;;
37655;SDS011;23498;50.958;3.124;2023-04-25T08:44:50;9.52;;;2.05;;
37655;SDS011;23498;50.958;3.124;2023-04-25T08:47:17;7.15;;;1.90;;
37655;SDS011;23498;50.958;3.124;2023-04-25T08:49:45;10.60;;;2.03;;
37655;SDS011;23498;50.958;3.124;2023-04-25T08:52:20;5.47;;;2.05;;
37655;SDS011;23498;50.958;3.124;2023-04-25T08:54:47;15.38;;;2.33;;
37655;SDS011;23498;50.958;3.124;2023-04-25T08:57:14;7.30;;;1.63;;
37655;SDS011;23498;50.958;3.124;2023-04-25T08:59:40;9.18;;;1.85;;
37655;SDS011;23498;50.958;3.124;2023-04-25T09:02:10;5.78;;;1.95;;
37655;SDS011;23498;50.958;3.124;2023-04-25T09:04:48;7.15;;;1.45;;
37655;SDS011;23498;50.958;3.124;2023-04-25T09:07:15;8.77;;;1.58;;
37655;SDS011;23498;50.958;3.124;2023-04-25T09:09:50;7.30;;;1.40;;
37655;SDS011;23498;50.958;3.124;2023-04-25T09:12:38;5.25;;;1.50;;
37655;SDS011;23498;50.958;3.124;2023-04-25T09:17:29;5.70;;;1.45;;
37655;SDS011;23498;50.958;3.124;2023-04-25T09:19:55;5.30;;;1.45;;
37655;SDS011;23498;50.958;3.124;2023-04-25T09:22:30;6.30;;;1.42;;
37655;SDS011;23498;50.958;3.124;2023-04-25T09:24:56;4.88;;;1.33;;
37655;SDS011;23498;50.958;3.124;2023-04-25T09:27:22;5.88;;;1.30;;
37655;SDS011;23498;50.958;3.124;2023-04-25T09:30:09;5.30;;;1.75;;
37655;SDS011;23498;50.958;3.124;2023-04-25T09:32:35;6.85;;;1.30;;
37655;SDS011;23498;50.958;3.124;2023-04-25T09:35:06;10.02;;;1.52;;
37655;SDS011;23498;50.958;3.124;2023-04-25T09:37:43;6.40;;;1.50;;
37655;SDS011;23498;50.958;3.124;2023-04-25T09:40:11;6.50;;;1.33;;
37655;SDS011;23498;50.958;3.124;2023-04-25T09:42:41;5.30;;;1.83;;
37655;SDS011;23498;50.958;3.124;2023-04-25T09:45:11;7.15;;;1.70;;
37655;SDS011;23498;50.958;3.124;2023-04-25T09:47:51;4.05;;;1.30;;
37655;SDS011;23498;50.958;3.124;2023-04-25T09:50:27;8.27;;;1.40;;
37655;SDS011;23498;50.958;3.124;2023-04-25T09:53:03;4.88;;;1.60;;
37655;SDS011;23498;50.958;3.124;2023-04-25T09:55:43;5.53;;;1.33;;
37655;SDS011;23498;50.958;3.124;2023-04-25T10:04:19;7.47;;;1.98;;
37655;SDS011;23498;50.958;3.124;2023-04-25T10:12:41;6.40;;;1.27;;
37655;SDS011;23498;50.958;3.124;2023-04-25T10:16:02;6.25;;;1.85;;
37655;SDS011;23498;50.958;3.124;2023-04-25T10:24:52;5.70;;;1.30;;
37655;SDS011;23498;50.958;3.124;2023-04-25T10:27:45;5.57;;;1.05;;
37655;SDS011;23498;50.958;3.124;2023-04-25T10:59:28;5.13;;;0.95;;
37655;SDS011;23498;50.958;3.124;2023-04-25T11:02:34;5.32;;;1.45;;
37655;SDS011;23498;50.958;3.124;2023-04-25T11:08:34;5.45;;;1.17;;
37655;SDS011;23498;50.958;3.124;2023-04-25T11:14:29;3.85;;;1.02;;
37655;SDS011;23498;50.958;3.124;2023-04-25T11:22:50;3.63;;;1.10;;
37655;SDS011;23498;50.958;3.124;2023-04-25T11:25:29;3.67;;;1.00;;
37655;SDS011;23498;50.958;3.124;2023-04-25T11:34:01;4.20;;;1.33;;
37655;SDS011;23498;50.958;3.124;2023-04-25T11:36:32;4.90;;;1.25;;
37655;SDS011;23498;50.958;3.124;2023-04-25T11:39:00;5.05;;;1.17;;
37655;SDS011;23498;50.958;3.124;2023-04-25T11:41:27;4.22;;;1.25;;
37655;SDS011;23498;50.958;3.124;2023-04-25T11:43:56;4.65;;;1.45;;
37655;SDS011;23498;50.958;3.124;2023-04-25T11:46:25;4.20;;;0.98;;
37655;SDS011;23498;50.958;3.124;2023-04-25T11:51:44;4.30;;;1.20;;
37655;SDS011;23498;50.958;3.124;2023-04-25T11:54:12;4.15;;;1.00;;
37655;SDS011;23498;50.958;3.124;2023-04-25T11:56:47;9.90;;;1.50;;
37655;SDS011;23498;50.958;3.124;2023-04-25T11:59:16;7.05;;;1.77;;
37655;SDS011;23498;50.958;3.124;2023-04-25T12:01:48;5.25;;;1.27;;
37655;SDS011;23498;50.958;3.124;2023-04-25T12:04:17;7.03;;;1.70;;
37655;SDS011;23498;50.958;3.124;2023-04-25T12:06:46;3.63;;;1.25;;
37655;SDS011;23498;50.958;3.124;2023-04-25T12:09:14;8.07;;;1.85;;
37655;SDS011;23498;50.958;3.124;2023-04-25T12:11:52;7.63;;;1.40;;
37655;SDS011;23498;50.958;3.124;2023-04-25T12:14:22;5.35;;;1.65;;
37655;SDS011;23498;50.958;3.124;2023-04-25T12:16:55;7.43;;;1.58;;
37655;SDS011;23498;50.958;3.124;2023-04-25T12:19:22;4.88;;;1.40;;
37655;SDS011;23498;50.958;3.124;2023-04-25T12:22:18;7.57;;;1.70;;
37655;SDS011;23498;50.958;3.124;2023-04-25T12:24:38;6.72;;;1.90;;
37655;SDS011;23498;50.958;3.124;2023-04-25T12:27:04;3.97;;;1.30;;
37655;SDS011;23498;50.958;3.124;2023-04-25T12:29:31;6.55;;;1.60;;
37655;SDS011;23498;50.958;3.124;2023-04-25T12:31:58;6.82;;;1.30;;
37655;SDS011;23498;50.958;3.124;2023-04-25T12:34:27;6.68;;;1.80;;
37655;SDS011;23498;50.958;3.124;2023-04-25T12:37:00;8.00;;;1.98;;
37655;SDS011;23498;50.958;3.124;2023-04-25T12:39:26;4.90;;;1.27;;
37655;SDS011;23498;50.958;3.124;2023-04-25T12:41:53;2.90;;;1.27;;
37655;SDS011;23498;50.958;3.124;2023-04-25T12:44:24;4.68;;;1.38;;
37655;SDS011;23498;50.958;3.124;2023-04-25T12:46:50;6.43;;;1.48;;
37655;SDS011;23498;50.958;3.124;2023-04-25T12:49:16;6.60;;;1.33;;
37655;SDS011;23498;50.958;3.124;2023-04-25T12:51:43;4.40;;;1.10;;
37655;SDS011;23498;50.958;3.124;2023-04-25T12:54:09;5.28;;;1.25;;
37655;SDS011;23498;50.958;3.124;2023-04-25T12:56:38;4.68;;;1.30;;
37655;SDS011;23498;50.958;3.124;2023-04-25T12:59:04;5.50;;;1.30;;
37655;SDS011;23498;50.958;3.124;2023-04-25T13:04:53;9.43;;;1.23;;
37655;SDS011;23498;50.958;3.124;2023-04-25T13:07:21;4.75;;;1.30;;
37655;SDS011;23498;50.958;3.124;2023-04-25T13:09:47;3.70;;;1.13;;
37655;SDS011;23498;50.958;3.124;2023-04-25T13:12:13;4.80;;;1.20;;
37655;SDS011;23498;50.958;3.124;2023-04-25T13:14:40;6.20;;;1.30;;
37655;SDS011;23498;50.958;3.124;2023-04-25T13:17:06;4.22;;;0.88;;
37655;SDS011;23498;50.958;3.124;2023-04-25T13:19:32;3.95;;;1.05;;
37655;SDS011;23498;50.958;3.124;2023-04-25T13:21:58;4.85;;;1.45;;
37655;SDS011;23498;50.958;3.124;2023-04-25T13:24:24;4.10;;;1.10;;
37655;SDS011;23498;50.958;3.124;2023-04-25T13:26:50;5.40;;;1.08;;
37655;SDS011;23498;50.958;3.124;2023-04-25T13:29:17;4.03;;;1.00;;
37655;SDS011;23498;50.958;3.124;2023-04-25T13:31:43;4.00;;;0.90;;
37655;SDS011;23498;50.958;3.124;2023-04-25T13:34:09;5.38;;;1.00;;
37655;SDS011;23498;50.958;3.124;2023-04-25T13:36:37;6.88;;;1.40;;
37655;SDS011;23498;50.958;3.124;2023-04-25T13:39:03;3.70;;;1.08;;
37655;SDS011;23498;50.958;3.124;2023-04-25T13:41:30;5.63;;;1.17;;
37655;SDS011;23498;50.958;3.124;2023-04-25T13:43:56;4.72;;;1.08;;
37655;SDS011;23498;50.958;3.124;2023-04-25T13:46:22;5.55;;;1.00;;
37655;SDS011;23498;50.958;3.124;2023-04-25T13:48:48;6.93;;;1.48;;
37655;SDS011;23498;50.958;3.124;2023-04-25T13:51:15;8.18;;;1.77;;
37655;SDS011;23498;50.958;3.124;2023-04-25T13:53:42;7.95;;;1.38;;
37655;SDS011;23498;50.958;3.124;2023-04-25T13:56:08;7.93;;;1.83;;
37655;SDS011;23498;50.958;3.124;2023-04-25T13:58:37;4.80;;;1.35;;
37655;SDS011;23498;50.958;3.124;2023-04-25T14:01:03;5.47;;;1.48;;
37655;SDS011;23498;50.958;3.124;2023-04-25T14:03:30;8.10;;;1.45;;
37655;SDS011;23498;50.958;3.124;2023-04-25T14:05:56;7.65;;;1.20;;
37655;SDS011;23498;50.958;3.124;2023-04-25T14:08:22;5.15;;;1.45;;
37655;SDS011;23498;50.958;3.124;2023-04-25T14:10:49;4.03;;;1.10;;
37655;SDS011;23498;50.958;3.124;2023-04-25T14:13:25;6.60;;;1.33;;
37655;SDS011;23498;50.958;3.124;2023-04-25T14:15:54;6.47;;;1.25;;
37655;SDS011;23498;50.958;3.124;2023-04-25T14:18:31;4.88;;;1.13;;
37655;SDS011;23498;50.958;3.124;2023-04-25T14:21:16;5.00;;;1.50;;
37655;SDS011;23498;50.958;3.124;2023-04-25T14:23:42;6.88;;;1.80;;
37655;SDS011;23498;50.958;3.124;2023-04-25T14:26:08;6.70;;;1.50;;
37655;SDS011;23498;50.958;3.124;2023-04-25T14:28:55;9.80;;;1.85;;
37655;SDS011;23498;50.958;3.124;2023-04-25T14:31:33;9.48;;;1.50;;
37655;SDS011;23498;50.958;3.124;2023-04-25T14:37:22;7.53;;;1.40;;
37655;SDS011;23498;50.958;3.124;2023-04-25T14:39:56;5.80;;;1.20;;
37655;SDS011;23498;50.958;3.124;2023-04-25T14:42:22;5.53;;;1.10;;
37655;SDS011;23498;50.958;3.124;2023-04-25T14:44:54;5.30;;;1.20;;
37655;SDS011;23498;50.958;3.124;2023-04-25T14:47:39;9.55;;;1.35;;
37655;SDS011;23498;50.958;3.124;2023-04-25T14:50:16;9.23;;;1.73;;
37655;SDS011;23498;50.958;3.124;2023-04-25T14:52:42;5.70;;;1.20;;
37655;SDS011;23498;50.958;3.124;2023-04-25T14:55:10;6.97;;;1.55;;
37655;SDS011;23498;50.958;3.124;2023-04-25T14:57:36;7.45;;;1.17;;
37655;SDS011;23498;50.958;3.124;2023-04-25T15:00:04;8.02;;;1.58;;
37655;SDS011;23498;50.958;3.124;2023-04-25T15:02:34;4.13;;;1.35;;
37655;SDS011;23498;50.958;3.124;2023-04-25T15:05:00;7.15;;;1.38;;
37655;SDS011;23498;50.958;3.124;2023-04-25T15:07:26;7.38;;;1.52;;
37655;SDS011;23498;50.958;3.124;2023-04-25T15:09:52;6.10;;;1.60;;
37655;SDS011;23498;50.958;3.124;2023-04-25T15:12:20;5.85;;;1.30;;
37655;SDS011;23498;50.958;3.124;2023-04-25T15:15:22;6.78;;;1.33;;
37655;SDS011;23498;50.958;3.124;2023-04-25T15:17:40;8.27;;;1.33;;
37655;SDS011;23498;50.958;3.124;2023-04-25T15:20:06;4.95;;;1.65;;
37655;SDS011;23498;50.958;3.124;2023-04-25T15:22:34;9.00;;;1.60;;
37655;SDS011;23498;50.958;3.124;2023-04-25T15:25:01;6.47;;;1.50;;
37655;SDS011;23498;50.958;3.124;2023-04-25T15:27:27;6.75;;;1.27;;
37655;SDS011;23498;50.958;3.124;2023-04-25T15:29:53;6.47;;;1.30;;
37655;SDS011;23498;50.958;3.124;2023-04-25T15:32:19;6.53;;;1.40;;
37655;SDS011;23498;50.958;3.124;2023-04-25T15:34:45;5.80;;;1.42;;
37655;SDS011;23498;50.958;3.124;2023-04-25T15:37:15;6.30;;;1.25;;
37655;SDS011;23498;50.958;3.124;2023-04-25T15:39:41;7.47;;;1.65;;
37655;SDS011;23498;50.958;3.124;2023-04-25T15:42:07;4.32;;;1.30;;
37655;SDS011;23498;50.958;3.124;2023-04-25T15:44:33;5.50;;;1.48;;
37655;SDS011;23498;50.958;3.124;2023-04-25T15:46:59;4.78;;;1.23;;
37655;SDS011;23498;50.958;3.124;2023-04-25T15:49:25;5.50;;;1.30;;
37655;SDS011;23498;50.958;3.124;2023-04-25T15:51:52;5.65;;;1.80;;
37655;SDS011;23498;50.958;3.124;2023-04-25T15:54:28;6.85;;;1.60;;
37655;SDS011;23498;50.958;3.124;2023-04-25T15:56:55;6.28;;;1.65;;
37655;SDS011;23498;50.958;3.124;2023-04-25T15:59:21;5.95;;;1.50;;
37655;SDS011;23498;50.958;3.124;2023-04-25T16:01:47;7.43;;;1.92;;
37655;SDS011;23498;50.958;3.124;2023-04-25T16:04:18;3.83;;;1.52;;
37655;SDS011;23498;50.958;3.124;2023-04-25T16:06:49;5.40;;;1.55;;
37655;SDS011;23498;50.958;3.124;2023-04-25T16:09:17;7.40;;;1.52;;
37655;SDS011;23498;50.958;3.124;2023-04-25T16:11:46;4.03;;;1.50;;
37655;SDS011;23498;50.958;3.124;2023-04-25T16:14:15;6.18;;;1.48;;
37655;SDS011;23498;50.958;3.124;2023-04-25T16:16:41;6.50;;;1.70;;
37655;SDS011;23498;50.958;3.124;2023-04-25T16:19:09;7.40;;;1.40;;
37655;SDS011;23498;50.958;3.124;2023-04-25T16:21:38;5.20;;;1.40;;
37655;SDS011;23498;50.958;3.124;2023-04-25T16:24:06;6.70;;;1.58;;
37655;SDS011;23498;50.958;3.124;2023-04-25T16:26:36;7.17;;;1.37;;
37655;SDS011;23498;50.958;3.124;2023-04-25T16:29:06;6.22;;;1.42;;
37655;SDS011;23498;50.958;3.124;2023-04-25T16:31:35;5.45;;;1.20;;
37655;SDS011;23498;50.958;3.124;2023-04-25T16:34:02;5.30;;;1.20;;
37655;SDS011;23498;50.958;3.124;2023-04-25T16:36:28;9.18;;;1.60;;
37655;SDS011;23498;50.958;3.124;2023-04-25T16:39:14;6.38;;;1.67;;
37655;SDS011;23498;50.958;3.124;2023-04-25T16:41:49;4.22;;;1.40;;
37655;SDS011;23498;50.958;3.124;2023-04-25T16:44:16;4.47;;;1.60;;
37655;SDS011;23498;50.958;3.124;2023-04-25T16:46:45;4.30;;;1.60;;
37655;SDS011;23498;50.958;3.124;2023-04-25T16:49:18;5.65;;;1.70;;
37655;SDS011;23498;50.958;3.124;2023-04-25T16:51:44;5.95;;;1.30;;
37655;SDS011;23498;50.958;3.124;2023-04-25T16:54:11;6.30;;;1.80;;
37655;SDS011;23498;50.958;3.124;2023-04-25T16:56:37;4.63;;;1.50;;
37655;SDS011;23498;50.958;3.124;2023-04-25T16:59:03;6.35;;;1.65;;
37655;SDS011;23498;50.958;3.124;2023-04-25T17:01:29;6.95;;;1.55;;
37655;SDS011;23498;50.958;3.124;2023-04-25T17:03:56;10.88;;;2.13;;
37655;SDS011;23498;50.958;3.124;2023-04-25T17:06:22;6.38;;;1.60;;